createdAt,value
2019-03-30T00:02:03.117Z,84.62
2019-03-30T00:04:30.346Z,84.70
2019-03-30T00:06:57.659Z,84.62
2019-03-30T00:09:24.998Z,84.93
2019-03-30T00:11:52.223Z,84.59
2019-03-30T00:14:19.549Z,84.84
2019-03-30T00:16:46.758Z,85.15
2019-03-30T00:19:14.097Z,85.33
2019-03-30T00:21:41.418Z,85.64
2019-03-30T00:24:08.747Z,86.75
2019-03-30T00:26:35.994Z,86.84
2019-03-30T00:29:03.329Z,86.63
2019-03-30T00:31:30.542Z,86.81
2019-03-30T00:33:57.873Z,87.31
2019-03-30T00:36:25.085Z,87.16
2019-03-30T00:38:52.430Z,86.82
2019-03-30T00:41:19.730Z,86.79
2019-03-30T00:43:47.291Z,86.67
2019-03-30T00:46:14.671Z,86.95
2019-03-30T00:48:41.912Z,86.86
2019-03-30T00:51:09.256Z,86.67
2019-03-30T00:53:36.577Z,86.55
2019-03-30T00:56:03.929Z,86.46
2019-03-30T00:58:31.182Z,86.44
2019-03-30T01:00:58.500Z,86.84
2019-03-30T01:03:25.858Z,86.77
2019-03-30T01:05:53.204Z,86.76
2019-03-30T01:08:20.413Z,86.67
2019-03-30T01:10:47.766Z,86.87
2019-03-30T01:13:14.988Z,87.19
2019-03-30T01:15:42.209Z,87.55
2019-03-30T01:18:09.538Z,88.16
2019-03-30T01:20:36.879Z,88.20
2019-03-30T01:23:04.214Z,87.91
2019-03-30T01:25:31.452Z,87.99
2019-03-30T01:27:58.672Z,88.34
2019-03-30T01:30:26.036Z,88.51
2019-03-30T01:32:53.257Z,88.53
2019-03-30T01:35:20.774Z,88.61
2019-03-30T01:37:48.518Z,88.55
2019-03-30T01:40:15.872Z,88.57
2019-03-30T01:42:43.194Z,88.77
2019-03-30T01:45:10.724Z,89.09
2019-03-30T01:47:38.046Z,89.09
2019-03-30T01:50:27.887Z,88.99
2019-03-30T01:52:55.114Z,88.98
2019-03-30T01:55:22.377Z,89.03
2019-03-30T01:57:49.644Z,89.89
2019-03-30T02:00:17.112Z,89.89
2019-03-30T02:02:44.456Z,89.97
2019-03-30T02:05:11.817Z,90.38
2019-03-30T02:07:39.460Z,90.16
2019-03-30T02:10:08.823Z,90.01
2019-03-30T02:12:36.054Z,89.81
2019-03-30T02:15:03.921Z,89.80
2019-03-30T02:17:31.251Z,89.80
2019-03-30T02:19:58.591Z,89.91
2019-03-30T02:22:25.908Z,90.04
2019-03-30T02:24:53.241Z,90.24
2019-03-30T02:27:20.564Z,90.37
2019-03-30T02:29:47.917Z,90.47
2019-03-30T02:32:15.232Z,90.90
2019-03-30T02:34:42.498Z,90.92
2019-03-30T02:37:09.721Z,90.93
2019-03-30T02:39:37.293Z,90.84
2019-03-30T02:42:04.632Z,90.81
2019-03-30T02:44:31.962Z,90.71
2019-03-30T02:46:59.297Z,90.64
2019-03-30T02:49:26.553Z,90.51
2019-03-30T02:51:53.890Z,90.41
2019-03-30T02:54:21.146Z,90.53
2019-03-30T02:56:48.426Z,90.53
2019-03-30T02:59:15.732Z,90.62
2019-03-30T03:01:43.088Z,90.55
2019-03-30T03:04:10.522Z,90.55
2019-03-30T03:06:37.902Z,90.76
2019-03-30T03:09:07.501Z,90.83
2019-03-30T03:11:34.824Z,90.83
2019-03-30T03:14:02.149Z,90.75
2019-03-30T03:16:29.503Z,90.83
2019-03-30T03:18:56.825Z,90.87
2019-03-30T03:21:24.195Z,90.85
2019-03-30T03:23:51.525Z,90.90
2019-03-30T03:26:18.873Z,90.89
2019-03-30T03:28:46.205Z,90.92
2019-03-30T03:31:13.550Z,91.02
2019-03-30T03:33:40.981Z,91.14
2019-03-30T03:36:08.224Z,91.04
2019-03-30T03:38:35.442Z,91.03
2019-03-30T03:41:03.113Z,90.86
2019-03-30T03:43:30.410Z,90.73
2019-03-30T03:45:57.644Z,90.98
2019-03-30T03:48:24.990Z,91.36
2019-03-30T03:50:59.003Z,91.56
2019-03-30T03:53:26.335Z,91.63
2019-03-30T03:56:16.114Z,91.80
2019-03-30T03:58:46.236Z,91.74
2019-03-30T04:01:16.799Z,91.56
2019-03-30T04:03:46.356Z,91.61
2019-03-30T04:06:15.496Z,91.63
2019-03-30T04:08:44.920Z,91.71
2019-03-30T04:11:14.548Z,91.39
2019-03-30T04:13:45.046Z,91.26
2019-03-30T04:16:12.371Z,91.14
2019-03-30T04:18:39.596Z,91.15
2019-03-30T04:21:06.939Z,91.23
2019-03-30T04:23:34.249Z,91.72
2019-03-30T04:26:01.392Z,91.79
2019-03-30T04:28:28.704Z,91.57
2019-03-30T04:30:55.972Z,91.48
2019-03-30T04:33:23.275Z,91.58
2019-03-30T04:35:50.610Z,91.67
2019-03-30T04:38:17.940Z,91.72
2019-03-30T04:40:45.261Z,91.77
2019-03-30T04:43:12.592Z,91.95
2019-03-30T04:45:39.971Z,92.04
2019-03-30T04:48:07.181Z,92.12
2019-03-30T04:50:34.528Z,92.10
2019-03-30T04:53:01.870Z,92.26
2019-03-30T04:55:29.200Z,92.63
2019-03-30T04:57:57.717Z,92.91
2019-03-30T05:00:25.355Z,92.99
2019-03-30T05:02:52.591Z,93.07
2019-03-30T05:05:19.810Z,93.04
2019-03-30T05:07:47.031Z,93.22
2019-03-30T05:10:14.362Z,93.37
2019-03-30T05:12:41.498Z,93.38
2019-03-30T05:15:08.914Z,93.34
2019-03-30T05:17:46.694Z,93.31
2019-03-30T05:20:05.973Z,93.39
2019-03-30T05:22:33.311Z,93.45
2019-03-30T05:25:00.824Z,93.44
2019-03-30T05:27:28.197Z,93.37
2019-03-30T05:29:55.501Z,93.19
2019-03-30T05:32:22.832Z,93.10
2019-03-30T05:34:50.149Z,93.08
2019-03-30T05:37:17.476Z,93.03
2019-03-30T05:39:45.088Z,93.00
2019-03-30T05:42:12.311Z,92.97
2019-03-30T05:44:39.623Z,92.88
2019-03-30T05:47:06.762Z,92.82
2019-03-30T05:49:34.085Z,92.71
2019-03-30T05:52:01.433Z,92.66
2019-03-30T05:54:28.809Z,92.66
2019-03-30T05:56:55.938Z,92.68
2019-03-30T05:59:23.278Z,92.72
2019-03-30T06:01:51.481Z,92.54
2019-03-30T06:04:18.820Z,92.24
2019-03-30T06:06:46.215Z,92.11
2019-03-30T06:09:13.431Z,92.11
2019-03-30T06:11:40.755Z,92.17
2019-03-30T06:14:07.911Z,92.17
2019-03-30T06:16:35.130Z,92.18
2019-03-30T06:19:02.462Z,92.35
2019-03-30T06:21:29.694Z,92.34
2019-03-30T06:23:57.035Z,92.34
2019-03-30T06:26:24.263Z,92.75
2019-03-30T06:28:51.632Z,92.11
2019-03-30T06:31:18.836Z,92.10
2019-03-30T06:33:46.081Z,92.13
2019-03-30T06:36:13.280Z,92.16
2019-03-30T06:38:40.613Z,90.91
2019-03-30T06:41:07.929Z,90.58
2019-03-30T06:43:35.403Z,90.87
2019-03-30T06:46:02.692Z,91.21
2019-03-30T06:48:30.045Z,91.90
2019-03-30T06:50:57.351Z,92.25
2019-03-30T06:53:24.736Z,92.39
2019-03-30T06:55:52.056Z,91.45
2019-03-30T06:58:19.860Z,87.75
2019-03-30T07:00:47.784Z,79.71
2019-03-30T07:03:15.113Z,72.49
2019-03-30T07:05:43.152Z,61.44
2019-03-30T07:08:31.132Z,55.34
2019-03-30T07:11:01.329Z,43.96
2019-03-30T07:13:31.880Z,38.02
2019-03-30T07:16:00.208Z,41.87
2019-03-30T07:18:28.062Z,38.22
2019-03-30T07:20:55.374Z,40.96
2019-03-30T07:23:22.618Z,37.53
2019-03-30T07:25:49.828Z,35.11
2019-03-30T07:28:17.179Z,31.60
2019-03-30T07:30:44.514Z,29.38
2019-03-30T07:33:11.882Z,29.13
2019-03-30T07:35:39.119Z,27.73
2019-03-30T07:38:06.487Z,24.96
2019-03-30T07:40:34.147Z,30.10
2019-03-30T07:43:02.294Z,30.74
2019-03-30T07:45:29.639Z,27.45
2019-03-30T07:47:57.079Z,28.35
2019-03-30T07:50:24.699Z,25.29
2019-03-30T07:52:52.654Z,24.17
2019-03-30T07:55:20.286Z,23.04
2019-03-30T07:57:47.635Z,21.73
2019-03-30T08:00:15.679Z,23.06
2019-03-30T08:02:43.017Z,23.52
2019-03-30T08:05:10.696Z,22.83
2019-03-30T08:07:38.006Z,21.90
2019-03-30T08:10:05.463Z,21.44
2019-03-30T08:12:32.771Z,21.54
2019-03-30T08:15:00.345Z,20.66
2019-03-30T08:17:27.754Z,19.91
2019-03-30T08:19:54.995Z,18.40
2019-03-30T08:22:22.312Z,17.12
2019-03-30T08:24:49.638Z,20.28
2019-03-30T08:27:16.955Z,20.76
2019-03-30T08:29:44.295Z,22.64
2019-03-30T08:32:11.609Z,19.13
2019-03-30T08:34:38.834Z,17.75
2019-03-30T08:37:06.160Z,21.10
2019-03-30T08:39:33.499Z,24.98
2019-03-30T08:42:01.117Z,25.72
2019-03-30T08:44:28.696Z,25.96
2019-03-30T08:46:56.333Z,27.17
2019-03-30T08:49:23.688Z,24.44
2019-03-30T08:51:51.016Z,21.40
2019-03-30T08:54:18.363Z,19.57
2019-03-30T08:56:45.714Z,23.06
2019-03-30T08:59:12.982Z,21.96
2019-03-30T09:01:40.313Z,22.59
2019-03-30T09:04:07.664Z,21.12
2019-03-30T09:06:35.008Z,19.98
2019-03-30T09:09:04.255Z,19.89
2019-03-30T09:11:31.473Z,20.35
2019-03-30T09:13:58.834Z,22.61
2019-03-30T09:16:26.190Z,21.16
2019-03-30T09:18:53.549Z,23.60
2019-03-30T09:21:20.908Z,23.58
2019-03-30T09:23:48.258Z,22.41
2019-03-30T09:26:16.745Z,20.73
2019-03-30T09:28:44.667Z,19.37
2019-03-30T09:31:12.022Z,19.33
2019-03-30T09:33:39.289Z,20.48
2019-03-30T09:36:06.654Z,22.58
2019-03-30T09:38:33.979Z,22.59
2019-03-30T09:41:01.336Z,25.95
2019-03-30T09:43:28.583Z,25.65
2019-03-30T09:45:55.924Z,21.66
2019-03-30T09:48:23.269Z,22.42
2019-03-30T09:50:50.522Z,23.05
2019-03-30T09:53:17.880Z,26.86
2019-03-30T09:55:45.273Z,22.40
2019-03-30T09:58:12.509Z,20.97
2019-03-30T10:00:40.647Z,18.82
2019-03-30T10:03:07.995Z,20.67
2019-03-30T10:05:35.355Z,21.48
2019-03-30T10:08:02.701Z,23.72
2019-03-30T10:10:30.044Z,22.51
2019-03-30T10:12:57.286Z,21.03
2019-03-30T10:15:24.634Z,21.18
2019-03-30T10:17:51.967Z,22.59
2019-03-30T10:20:19.311Z,22.58
2019-03-30T10:22:46.619Z,21.18
2019-03-30T10:25:13.984Z,19.99
2019-03-30T10:27:41.338Z,20.83
2019-03-30T10:30:11.007Z,20.19
2019-03-30T10:32:38.229Z,19.47
2019-03-30T10:35:05.881Z,21.03
2019-03-30T10:37:33.538Z,19.95
2019-03-30T10:40:00.896Z,17.07
2019-03-30T10:42:28.135Z,16.42
2019-03-30T10:44:55.375Z,16.09
2019-03-30T10:47:22.702Z,17.03
2019-03-30T10:49:50.418Z,17.64
2019-03-30T10:52:17.768Z,18.53
2019-03-30T10:54:52.691Z,16.29
2019-03-30T10:57:14.185Z,19.28
2019-03-30T10:59:41.542Z,20.48
2019-03-30T11:02:08.875Z,18.21
2019-03-30T11:04:37.593Z,19.04
2019-03-30T11:07:05.155Z,18.22
2019-03-30T11:09:32.488Z,18.22
2019-03-30T11:11:59.930Z,15.82
2019-03-30T11:14:27.250Z,14.25
2019-03-30T11:16:54.723Z,15.39
2019-03-30T11:19:22.058Z,17.34
2019-03-30T11:21:49.421Z,19.11
2019-03-30T11:24:16.730Z,19.54
2019-03-30T11:26:44.076Z,21.93
2019-03-30T11:29:11.316Z,20.71
2019-03-30T11:31:38.989Z,20.54
2019-03-30T11:34:06.336Z,20.86
2019-03-30T11:36:33.662Z,21.60
2019-03-30T11:39:00.870Z,21.07
2019-03-30T11:41:28.233Z,19.64
2019-03-30T11:43:55.909Z,21.25
2019-03-30T11:46:23.245Z,19.80
2019-03-30T11:48:50.469Z,20.51
2019-03-30T11:51:17.823Z,19.37
2019-03-30T11:53:45.040Z,18.90
2019-03-30T11:56:12.292Z,20.36
2019-03-30T11:58:39.628Z,22.47
2019-03-30T12:01:06.977Z,22.98
2019-03-30T12:03:34.210Z,19.44
2019-03-30T12:06:01.552Z,18.20
2019-03-30T12:08:28.873Z,17.61
2019-03-30T12:10:56.117Z,19.59
2019-03-30T12:13:23.501Z,20.19
2019-03-30T12:15:50.822Z,19.54
2019-03-30T12:18:18.432Z,17.13
2019-03-30T12:20:45.780Z,16.61
2019-03-30T12:23:13.445Z,18.68
2019-03-30T12:25:40.807Z,20.17
2019-03-30T12:28:08.142Z,18.11
2019-03-30T12:30:35.483Z,20.68
2019-03-30T12:33:03.025Z,25.13
2019-03-30T12:35:30.362Z,27.18
2019-03-30T12:37:57.697Z,25.04
2019-03-30T12:40:25.039Z,25.87
2019-03-30T12:42:52.371Z,25.18
2019-03-30T12:45:19.719Z,26.61
2019-03-30T12:47:47.040Z,26.73
2019-03-30T12:50:14.467Z,24.39
2019-03-30T12:52:41.686Z,24.17
2019-03-30T12:55:09.022Z,25.37
2019-03-30T12:57:36.257Z,27.27
2019-03-30T13:00:04.312Z,29.70
2019-03-30T13:02:31.628Z,29.36
2019-03-30T13:04:58.875Z,30.78
2019-03-30T13:07:26.201Z,30.95
2019-03-30T13:09:53.429Z,30.74
2019-03-30T13:12:20.753Z,29.56
2019-03-30T13:14:47.996Z,25.96
2019-03-30T13:17:15.326Z,23.25
2019-03-30T13:19:43.541Z,22.61
2019-03-30T13:22:10.767Z,22.19
2019-03-30T13:24:38.079Z,21.34
2019-03-30T13:27:05.423Z,22.67
2019-03-30T13:29:33.029Z,25.44
2019-03-30T13:32:00.394Z,24.57
2019-03-30T13:34:27.637Z,25.52
2019-03-30T13:37:06.037Z,28.32
2019-03-30T13:39:33.268Z,26.98
2019-03-30T13:42:00.692Z,26.32
2019-03-30T13:44:28.038Z,27.31
2019-03-30T13:46:55.360Z,26.76
2019-03-30T13:49:22.710Z,27.99
2019-03-30T13:51:50.335Z,29.46
2019-03-30T13:54:17.837Z,30.00
2019-03-30T13:56:45.631Z,28.88
2019-03-30T13:59:12.968Z,26.43
2019-03-30T14:01:40.324Z,23.02
2019-03-30T14:04:08.033Z,23.98
2019-03-30T14:06:36.268Z,25.07
2019-03-30T14:09:05.534Z,25.03
2019-03-30T14:11:32.882Z,27.83
2019-03-30T14:14:00.198Z,24.92
2019-03-30T14:16:27.541Z,24.38
2019-03-30T14:18:54.870Z,23.99
2019-03-30T14:21:22.219Z,23.60
2019-03-30T14:23:50.136Z,22.37
2019-03-30T14:26:30.367Z,20.84
2019-03-30T14:28:46.704Z,21.12
2019-03-30T14:31:13.950Z,23.76
2019-03-30T14:33:41.413Z,23.04
2019-03-30T14:36:08.787Z,25.33
2019-03-30T14:38:36.768Z,27.45
2019-03-30T14:41:06.773Z,28.27
2019-03-30T14:43:34.106Z,26.64
2019-03-30T14:46:01.344Z,25.16
2019-03-30T14:48:28.677Z,27.46
2019-03-30T14:50:56.835Z,27.54
2019-03-30T14:53:24.499Z,27.19
2019-03-30T14:55:51.852Z,26.35
2019-03-30T14:58:19.208Z,24.55
2019-03-30T15:00:47.674Z,24.88
2019-03-30T15:03:14.915Z,23.75
2019-03-30T15:05:42.572Z,22.50
2019-03-30T15:08:09.811Z,23.28
2019-03-30T15:10:37.023Z,25.05
2019-03-30T15:13:04.632Z,26.12
2019-03-30T15:15:32.666Z,25.05
2019-03-30T15:18:00.023Z,24.72
2019-03-30T15:20:27.359Z,25.33
2019-03-30T15:22:54.700Z,25.02
2019-03-30T15:25:22.022Z,22.92
2019-03-30T15:27:49.389Z,26.26
2019-03-30T15:30:16.753Z,26.63
2019-03-30T15:32:44.091Z,25.71
2019-03-30T15:35:11.409Z,25.63
2019-03-30T15:37:38.655Z,24.65
2019-03-30T15:40:06.438Z,26.18
2019-03-30T15:42:33.799Z,27.31
2019-03-30T15:45:01.117Z,26.78
2019-03-30T15:47:28.715Z,25.03
2019-03-30T15:49:56.190Z,23.25
2019-03-30T15:52:25.402Z,23.90
2019-03-30T15:54:52.711Z,23.08
2019-03-30T15:57:20.493Z,22.95
2019-03-30T15:59:48.115Z,24.52
2019-03-30T16:02:15.572Z,25.87
2019-03-30T16:04:42.808Z,26.97
2019-03-30T16:07:10.059Z,27.33
2019-03-30T16:09:37.445Z,29.54
2019-03-30T16:12:04.779Z,28.18
2019-03-30T16:14:34.080Z,26.83
2019-03-30T16:17:01.431Z,26.42
2019-03-30T16:19:28.749Z,28.05
2019-03-30T16:21:56.500Z,29.29
2019-03-30T16:24:45.579Z,30.73
2019-03-30T16:27:27.864Z,30.42
2019-03-30T16:29:42.644Z,31.14
2019-03-30T16:32:09.999Z,31.16
2019-03-30T16:34:37.226Z,31.95
2019-03-30T16:37:04.549Z,32.34
2019-03-30T16:39:34.624Z,33.02
2019-03-30T16:42:01.139Z,31.63
2019-03-30T16:44:28.485Z,31.14
2019-03-30T16:46:57.410Z,30.86
2019-03-30T16:49:24.834Z,30.81
2019-03-30T16:51:52.157Z,29.52
2019-03-30T16:54:19.504Z,31.51
2019-03-30T16:56:46.743Z,31.80
2019-03-30T16:59:14.184Z,33.09
2019-03-30T17:01:41.383Z,33.77
2019-03-30T17:04:08.618Z,33.76
2019-03-30T17:06:35.923Z,34.09
2019-03-30T17:09:04.796Z,34.45
2019-03-30T17:11:32.116Z,34.40
2019-03-30T17:13:59.508Z,34.89
2019-03-30T17:16:26.830Z,35.11
2019-03-30T17:18:54.159Z,35.67
2019-03-30T17:21:21.406Z,35.68
2019-03-30T17:23:48.754Z,35.99
2019-03-30T17:26:15.943Z,36.43
2019-03-30T17:28:43.279Z,36.38
2019-03-30T17:31:10.497Z,36.52
2019-03-30T17:33:37.804Z,36.72
2019-03-30T17:36:05.133Z,37.13
2019-03-30T17:38:32.374Z,37.60
2019-03-30T17:40:59.673Z,37.74
2019-03-30T17:43:27.005Z,37.88
2019-03-30T17:45:54.315Z,38.10
2019-03-30T17:48:21.651Z,38.89
2019-03-30T17:50:48.964Z,39.19
2019-03-30T17:53:17.606Z,39.92
2019-03-30T17:55:48.132Z,40.79
2019-03-30T17:58:15.465Z,40.95
2019-03-30T18:00:42.779Z,41.41
2019-03-30T18:03:10.026Z,42.26
2019-03-30T18:05:37.329Z,42.46
2019-03-30T18:08:06.240Z,42.75
2019-03-30T18:10:33.446Z,42.89
2019-03-30T18:13:02.036Z,43.17
2019-03-30T18:15:29.291Z,43.77
2019-03-30T18:17:57.013Z,43.11
2019-03-30T18:20:37.356Z,44.00
2019-03-30T18:23:04.596Z,45.10
2019-03-30T18:25:31.929Z,44.70
2019-03-30T18:27:59.298Z,44.40
2019-03-30T18:30:37.424Z,44.60
2019-03-30T18:33:04.978Z,45.59
2019-03-30T18:35:32.632Z,45.54
2019-03-30T18:38:00.727Z,46.72
2019-03-30T18:40:29.691Z,45.49
2019-03-30T18:42:57.498Z,46.17
2019-03-30T18:45:25.860Z,46.32
2019-03-30T18:47:59.592Z,45.80
2019-03-30T18:50:26.939Z,45.86
2019-03-30T18:52:54.846Z,46.51
2019-03-30T18:55:22.877Z,46.64
2019-03-30T18:57:50.242Z,47.25
2019-03-30T19:00:25.214Z,46.77
2019-03-30T19:02:52.458Z,47.30
2019-03-30T19:05:19.890Z,48.18
2019-03-30T19:07:47.211Z,48.52
2019-03-30T19:10:14.457Z,48.34
2019-03-30T19:12:41.660Z,48.69
2019-03-30T19:15:09.092Z,49.18
2019-03-30T19:17:36.422Z,49.54
2019-03-30T19:20:04.447Z,49.14
2019-03-30T19:22:31.676Z,49.00
2019-03-30T19:24:59.028Z,49.10
2019-03-30T19:27:26.286Z,49.88
2019-03-30T19:29:53.600Z,49.64
2019-03-30T19:32:20.939Z,49.59
2019-03-30T19:34:48.284Z,50.16
2019-03-30T19:37:15.614Z,50.51
2019-03-30T19:39:42.946Z,50.25
2019-03-30T19:42:10.167Z,50.26
2019-03-30T19:44:37.609Z,51.13
2019-03-30T19:47:04.960Z,51.92
2019-03-30T19:49:33.484Z,51.92
2019-03-30T19:52:20.081Z,52.35
2019-03-30T19:54:47.425Z,52.72
2019-03-30T19:57:14.777Z,52.74
2019-03-30T19:59:42.019Z,53.07
2019-03-30T20:02:09.782Z,53.44
2019-03-30T20:04:37.115Z,54.47
2019-03-30T20:07:04.441Z,53.67
2019-03-30T20:09:31.679Z,54.10
2019-03-30T20:11:58.891Z,54.41
2019-03-30T20:14:26.218Z,54.74
2019-03-30T20:16:53.430Z,55.13
2019-03-30T20:19:20.770Z,55.00
2019-03-30T20:21:48.094Z,55.13
2019-03-30T20:24:15.343Z,55.27
2019-03-30T20:26:42.616Z,55.68
2019-03-30T20:29:24.385Z,56.17
2019-03-30T20:31:39.223Z,56.18
2019-03-30T20:34:06.436Z,57.15
2019-03-30T20:36:35.392Z,56.93
2019-03-30T20:39:22.066Z,57.24
2019-03-30T20:41:49.426Z,57.91
2019-03-30T20:44:16.732Z,58.70
2019-03-30T20:46:44.060Z,59.05
2019-03-30T20:49:11.565Z,59.70
2019-03-30T20:51:38.796Z,60.22
2019-03-30T20:54:06.219Z,60.52
2019-03-30T20:56:33.530Z,60.52
2019-03-30T20:59:00.755Z,61.16
2019-03-30T21:01:28.076Z,61.74
2019-03-30T21:03:55.403Z,61.94
2019-03-30T21:06:22.658Z,62.73
2019-03-30T21:08:49.886Z,62.71
2019-03-30T21:11:17.103Z,63.54
2019-03-30T21:13:44.311Z,64.11
2019-03-30T21:16:11.521Z,64.38
2019-03-30T21:18:38.724Z,64.52
2019-03-30T21:21:08.995Z,64.60
2019-03-30T21:23:35.071Z,64.55
2019-03-30T21:26:02.396Z,64.81
2019-03-30T21:28:29.589Z,64.15
2019-03-30T21:30:56.932Z,64.49
2019-03-30T21:33:24.239Z,63.71
2019-03-30T21:35:51.460Z,64.67
2019-03-30T21:38:18.790Z,64.63
2019-03-30T21:40:46.121Z,63.60
2019-03-30T21:43:13.337Z,64.10
2019-03-30T21:45:40.687Z,64.94
2019-03-30T21:48:07.998Z,64.12
2019-03-30T21:50:35.333Z,64.47
2019-03-30T21:53:02.744Z,64.98
2019-03-30T21:55:29.987Z,65.23
2019-03-30T21:57:57.751Z,65.34
2019-03-30T22:00:33.312Z,65.93
2019-03-30T22:03:00.555Z,66.48
2019-03-30T22:05:28.066Z,66.25
2019-03-30T22:07:55.914Z,66.23
2019-03-30T22:10:27.079Z,66.59
2019-03-30T22:12:54.406Z,66.35
2019-03-30T22:15:26.040Z,66.72
2019-03-30T22:17:53.288Z,66.58
2019-03-30T22:20:21.425Z,66.57
2019-03-30T22:22:48.844Z,67.36
2019-03-30T22:25:16.171Z,68.10
2019-03-30T22:27:43.490Z,68.67
2019-03-30T22:30:24.208Z,68.76
2019-03-30T22:32:40.254Z,69.18
2019-03-30T22:35:07.684Z,69.23
2019-03-30T22:37:34.910Z,69.05
2019-03-30T22:40:02.433Z,69.80
2019-03-30T22:42:29.758Z,69.85
2019-03-30T22:44:56.964Z,70.03
2019-03-30T22:47:24.206Z,70.04
2019-03-30T22:49:51.841Z,69.78
2019-03-30T22:52:20.449Z,69.61
2019-03-30T22:54:48.381Z,68.67
2019-03-30T22:57:15.532Z,68.94
2019-03-30T22:59:42.864Z,69.09
2019-03-30T23:02:10.229Z,68.76
2019-03-30T23:04:37.662Z,69.45
2019-03-30T23:07:04.986Z,69.98
2019-03-30T23:09:32.291Z,70.35
2019-03-30T23:11:59.520Z,70.33
2019-03-30T23:14:26.757Z,70.29
2019-03-30T23:16:54.087Z,70.29
2019-03-30T23:19:21.512Z,69.84
2019-03-30T23:21:48.857Z,68.82
2019-03-30T23:24:16.068Z,69.60
2019-03-30T23:26:43.399Z,70.86
2019-03-30T23:29:10.709Z,71.39
2019-03-30T23:31:37.940Z,71.85
2019-03-30T23:34:05.246Z,72.44
2019-03-30T23:36:32.446Z,72.94
2019-03-30T23:38:59.784Z,73.46
2019-03-30T23:41:27.100Z,73.72
2019-03-30T23:43:54.438Z,74.21
2019-03-30T23:46:21.765Z,74.57
2019-03-30T23:48:49.005Z,74.88
2019-03-30T23:51:18.387Z,74.48
2019-03-30T23:53:45.628Z,75.03
2019-03-30T23:56:20.489Z,75.14
2019-03-30T23:58:47.843Z,75.30
